createdAt,value
2023-04-09T00:02:49.981Z,5.13
2023-04-09T00:05:53.942Z,5.27
2023-04-09T00:08:56.959Z,5.10
2023-04-09T00:12:00.045Z,4.70
2023-04-09T00:15:04.660Z,4.83
2023-04-09T00:18:07.817Z,4.77
2023-04-09T00:21:11.330Z,4.67
2023-04-09T00:24:14.399Z,4.53
2023-04-09T00:27:17.485Z,4.90
2023-04-09T00:30:22.353Z,4.87
2023-04-09T00:33:25.822Z,4.90
2023-04-09T00:36:28.938Z,4.50
2023-04-09T00:39:32.071Z,4.80
2023-04-09T00:42:35.916Z,4.70
2023-04-09T00:45:40.602Z,4.03
2023-04-09T00:48:43.748Z,4.40
2023-04-09T00:51:47.540Z,4.17
2023-04-09T00:54:51.348Z,4.50
2023-04-09T00:57:54.454Z,4.10
2023-04-09T01:00:59.014Z,3.90
2023-04-09T01:04:02.283Z,4.60
2023-04-09T01:07:13.031Z,4.20
2023-04-09T01:10:25.869Z,4.20
2023-04-09T01:13:36.337Z,4.17
2023-04-09T01:16:45.929Z,4.37
2023-04-09T01:19:55.987Z,4.13
2023-04-09T01:23:07.481Z,4.00
2023-04-09T01:26:22.733Z,4.17
2023-04-09T01:29:31.157Z,3.97
2023-04-09T01:32:38.438Z,4.33
2023-04-09T01:35:43.990Z,4.47
2023-04-09T01:38:51.268Z,4.30
2023-04-09T01:41:55.007Z,3.80
2023-04-09T01:45:00.168Z,3.77
2023-04-09T01:48:04.724Z,3.63
2023-04-09T01:51:07.878Z,4.00
2023-04-09T01:54:11.288Z,4.00
2023-04-09T01:57:14.322Z,3.90
2023-04-09T02:00:18.982Z,4.00
2023-04-09T02:03:25.111Z,4.17
2023-04-09T02:06:35.940Z,3.90
2023-04-09T02:09:41.308Z,4.20
2023-04-09T02:12:49.957Z,3.70
2023-04-09T02:15:55.726Z,3.63
2023-04-09T02:19:01.306Z,3.73
2023-04-09T02:22:06.076Z,3.53
2023-04-09T02:25:09.551Z,3.80
2023-04-09T02:28:12.578Z,3.60
2023-04-09T02:31:17.135Z,3.50
2023-04-09T02:34:20.218Z,3.23
2023-04-09T02:37:23.261Z,3.63
2023-04-09T02:40:26.574Z,3.40
2023-04-09T02:43:29.638Z,3.80
2023-04-09T02:46:34.382Z,3.70
2023-04-09T02:49:37.488Z,3.77
2023-04-09T02:52:40.852Z,3.70
2023-04-09T02:55:43.981Z,3.87
2023-04-09T02:58:49.429Z,3.50
2023-04-09T03:01:54.044Z,3.97
2023-04-09T03:04:57.097Z,3.80
2023-04-09T03:08:00.358Z,4.07
2023-04-09T03:11:03.418Z,3.63
2023-04-09T03:14:06.381Z,3.90
2023-04-09T03:17:10.892Z,3.70
2023-04-09T03:20:13.905Z,4.10
2023-04-09T03:23:16.948Z,4.30
2023-04-09T03:26:19.950Z,4.40
2023-04-09T03:29:22.998Z,5.10
2023-04-09T03:32:27.538Z,3.80
2023-04-09T03:35:30.762Z,3.80
2023-04-09T03:38:33.893Z,4.20
2023-04-09T03:41:37.072Z,4.37
2023-04-09T03:44:40.144Z,4.77
2023-04-09T03:47:44.693Z,4.43
2023-04-09T03:50:47.737Z,4.13
2023-04-09T03:53:50.728Z,3.60
2023-04-09T03:56:53.772Z,4.30
2023-04-09T03:59:56.832Z,4.30
2023-04-09T04:03:01.602Z,4.70
2023-04-09T04:06:05.395Z,4.27
2023-04-09T04:09:08.487Z,4.70
2023-04-09T04:12:11.587Z,4.00
2023-04-09T04:15:14.836Z,4.47
2023-04-09T04:18:19.245Z,4.50
2023-04-09T04:21:22.352Z,4.30
2023-04-09T04:24:25.415Z,4.40
2023-04-09T04:27:28.565Z,4.47
2023-04-09T04:30:31.618Z,4.83
2023-04-09T04:33:36.076Z,4.33
2023-04-09T04:36:39.234Z,5.00
2023-04-09T04:39:42.327Z,4.70
2023-04-09T04:42:45.360Z,5.03
2023-04-09T04:45:48.397Z,4.57
2023-04-09T04:48:53.204Z,4.47
2023-04-09T04:51:56.407Z,4.80
2023-04-09T04:54:59.442Z,4.90
2023-04-09T04:58:02.532Z,5.00
2023-04-09T05:01:05.687Z,5.10
2023-04-09T05:04:10.098Z,5.10
2023-04-09T05:07:13.159Z,5.20
2023-04-09T05:10:16.169Z,5.53
2023-04-09T05:13:19.662Z,5.17
2023-04-09T05:16:23.686Z,4.77
2023-04-09T05:19:28.157Z,4.63
2023-04-09T05:22:31.150Z,5.23
2023-04-09T05:25:34.267Z,4.60
2023-04-09T05:28:37.474Z,4.73
2023-04-09T05:31:41.362Z,5.10
2023-04-09T05:34:45.839Z,4.93
2023-04-09T05:37:49.553Z,5.47
2023-04-09T05:40:52.917Z,4.80
2023-04-09T05:43:56.147Z,5.00
2023-04-09T05:46:59.218Z,5.10
2023-04-09T05:50:04.300Z,5.27
2023-04-09T05:53:07.364Z,5.40
2023-04-09T05:56:15.628Z,4.60
2023-04-09T05:59:18.698Z,5.40
2023-04-09T06:02:21.850Z,5.17
2023-04-09T06:05:26.685Z,4.70
2023-04-09T06:08:29.739Z,5.27
2023-04-09T06:11:33.428Z,4.97
2023-04-09T06:14:36.576Z,4.60
2023-04-09T06:17:39.652Z,4.60
2023-04-09T06:20:44.142Z,5.47
2023-04-09T06:23:47.471Z,5.13
2023-04-09T06:26:50.650Z,4.50
2023-04-09T06:29:53.678Z,5.17
2023-04-09T06:32:56.804Z,4.87
2023-04-09T06:36:01.547Z,5.20
2023-04-09T06:39:04.975Z,5.03
2023-04-09T06:42:08.018Z,5.17
2023-04-09T06:45:11.589Z,5.00
2023-04-09T06:48:14.582Z,4.80
2023-04-09T06:51:18.989Z,5.20
2023-04-09T06:54:22.074Z,5.20
2023-04-09T06:57:25.117Z,4.60
2023-04-09T07:00:28.254Z,5.40
2023-04-09T07:03:31.603Z,4.80
2023-04-09T07:06:36.613Z,5.27
2023-04-09T07:09:39.830Z,4.70
2023-04-09T07:12:42.902Z,4.67
2023-04-09T07:15:46.074Z,5.10
2023-04-09T07:18:49.382Z,5.30
2023-04-09T07:21:53.842Z,5.57
2023-04-09T07:24:56.880Z,5.00
2023-04-09T07:27:59.910Z,4.97
2023-04-09T07:31:04.023Z,5.07
2023-04-09T07:34:07.232Z,4.80
2023-04-09T07:37:11.842Z,4.40
2023-04-09T07:40:15.169Z,5.80
2023-04-09T07:43:18.960Z,5.00
2023-04-09T07:46:23.280Z,5.50
2023-04-09T07:49:26.424Z,4.90
2023-04-09T07:52:31.054Z,5.23
2023-04-09T07:55:34.121Z,5.27
2023-04-09T07:58:39.132Z,5.50
2023-04-09T08:01:42.494Z,4.70
2023-04-09T08:04:45.808Z,5.33
2023-04-09T08:07:52.862Z,5.40
2023-04-09T08:10:55.909Z,6.00
2023-04-09T08:14:01.463Z,5.97
2023-04-09T08:17:04.545Z,5.57
2023-04-09T08:20:08.799Z,6.13
2023-04-09T08:23:13.412Z,5.80
2023-04-09T08:26:16.591Z,6.20
2023-04-09T08:29:19.804Z,5.40
2023-04-09T08:32:22.876Z,5.80
2023-04-09T08:35:26.047Z,5.70
2023-04-09T08:38:30.487Z,6.30
2023-04-09T08:41:33.644Z,6.20
2023-04-09T08:44:39.541Z,5.77
2023-04-09T08:47:44.907Z,5.63
2023-04-09T08:50:48.011Z,5.70
2023-04-09T08:53:57.712Z,6.20
2023-04-09T08:57:00.798Z,6.27
2023-04-09T09:00:04.047Z,6.07
2023-04-09T09:03:09.456Z,5.80
2023-04-09T09:06:22.616Z,6.67
2023-04-09T09:09:27.171Z,5.70
2023-04-09T09:12:38.545Z,5.50
2023-04-09T09:15:41.620Z,5.60
2023-04-09T09:18:45.664Z,5.50
2023-04-09T09:21:56.953Z,5.67
2023-04-09T09:25:01.461Z,5.87
2023-04-09T09:28:09.778Z,6.10
2023-04-09T09:31:14.084Z,5.63
2023-04-09T09:34:17.894Z,5.70
2023-04-09T09:37:28.154Z,6.13
2023-04-09T09:40:32.806Z,5.67
2023-04-09T09:43:42.542Z,5.87
2023-04-09T09:46:45.688Z,6.20
2023-04-09T09:49:50.151Z,5.63
2023-04-09T09:53:00.239Z,5.60
2023-04-09T09:56:07.018Z,5.77
2023-04-09T09:59:17.370Z,5.90
2023-04-09T10:02:22.025Z,6.13
2023-04-09T10:05:27.566Z,5.83
2023-04-09T10:08:33.482Z,5.53
2023-04-09T10:11:39.035Z,5.60
2023-04-09T10:14:43.917Z,5.67
2023-04-09T10:17:47.393Z,5.60
2023-04-09T10:20:56.241Z,5.63
2023-04-09T10:24:00.065Z,5.97
2023-04-09T10:27:15.643Z,5.83
2023-04-09T10:30:33.641Z,5.17
2023-04-09T10:33:39.348Z,5.43
2023-04-09T10:36:44.990Z,5.50
2023-04-09T10:39:50.088Z,5.23
2023-04-09T10:42:56.102Z,4.70
2023-04-09T10:45:59.230Z,5.83
2023-04-09T10:49:18.052Z,5.30
2023-04-09T10:52:31.393Z,6.10
2023-04-09T10:55:37.340Z,5.37
2023-04-09T10:58:41.750Z,5.90
2023-04-09T11:01:54.653Z,6.30
2023-04-09T11:05:07.399Z,6.03
2023-04-09T11:08:12.240Z,6.20
2023-04-09T11:11:16.661Z,6.30
2023-04-09T11:14:23.903Z,6.10
2023-04-09T11:17:27.086Z,6.37
2023-04-09T11:20:31.280Z,5.90
2023-04-09T11:23:34.772Z,5.73
2023-04-09T11:26:37.974Z,5.80
2023-04-09T11:29:42.484Z,6.23
2023-04-09T11:32:45.915Z,6.20
2023-04-09T11:35:49.400Z,6.17
2023-04-09T11:38:52.876Z,6.37
2023-04-09T11:41:56.111Z,6.33
2023-04-09T11:45:02.150Z,6.10
2023-04-09T11:48:05.859Z,12.23
2023-04-09T11:51:09.260Z,21.97
2023-04-09T11:54:13.400Z,16.47
2023-04-09T11:57:16.591Z,14.23
2023-04-09T12:00:21.522Z,12.10
2023-04-09T12:03:30.879Z,10.17
2023-04-09T12:06:34.707Z,9.07
2023-04-09T12:09:48.872Z,7.73
2023-04-09T12:12:51.974Z,6.97
2023-04-09T12:19:02.335Z,7.37
2023-04-09T12:22:05.723Z,7.13
2023-04-09T12:25:09.669Z,6.00
2023-04-09T12:28:15.883Z,6.97
2023-04-09T12:31:20.883Z,6.20
2023-04-09T12:34:24.189Z,5.53
2023-04-09T12:37:28.975Z,5.77
2023-04-09T12:40:32.372Z,6.07
2023-04-09T12:43:35.559Z,6.30
2023-04-09T12:46:40.042Z,5.93
2023-04-09T12:49:46.400Z,6.90
2023-04-09T12:52:49.757Z,6.30
2023-04-09T12:55:52.922Z,5.93
2023-04-09T12:58:56.282Z,5.20
2023-04-09T13:02:00.968Z,5.30
2023-04-09T13:05:04.502Z,5.20
2023-04-09T13:08:08.071Z,6.03
2023-04-09T13:11:11.314Z,5.60
2023-04-09T13:14:14.601Z,6.23
2023-04-09T13:17:19.248Z,5.50
2023-04-09T13:20:22.257Z,5.40
2023-04-09T13:23:25.445Z,5.37
2023-04-09T13:26:28.544Z,4.63
2023-04-09T13:29:32.017Z,4.97
2023-04-09T13:32:36.626Z,5.27
2023-04-09T13:35:39.767Z,5.37
2023-04-09T13:38:43.163Z,5.27
2023-04-09T13:41:46.356Z,5.57
2023-04-09T13:44:49.498Z,5.00
2023-04-09T13:47:54.180Z,5.43
2023-04-09T13:50:57.945Z,5.43
2023-04-09T13:54:01.243Z,5.03
2023-04-09T13:57:05.426Z,5.20
2023-04-09T14:00:09.691Z,5.40
2023-04-09T14:03:14.572Z,5.40
2023-04-09T14:06:17.841Z,5.20
2023-04-09T14:09:20.930Z,5.40
2023-04-09T14:12:23.968Z,6.17
2023-04-09T14:15:27.050Z,5.17
2023-04-09T14:18:31.534Z,5.50
2023-04-09T14:21:35.420Z,7.13
2023-04-09T14:24:40.226Z,10.60
2023-04-09T14:27:43.566Z,11.70
2023-04-09T14:30:47.285Z,13.53
2023-04-09T14:33:51.729Z,14.70
2023-04-09T14:36:54.752Z,14.30
2023-04-09T14:39:57.799Z,15.23
2023-04-09T14:43:01.222Z,14.27
2023-04-09T14:46:06.437Z,14.80
2023-04-09T14:49:11.053Z,14.07
2023-04-09T14:52:14.140Z,13.83
2023-04-09T14:55:17.371Z,13.60
2023-04-09T14:58:20.814Z,13.00
2023-04-09T15:01:23.966Z,10.20
2023-04-09T15:04:28.532Z,9.50
2023-04-09T15:07:31.802Z,8.90
2023-04-09T15:10:37.039Z,9.97
2023-04-09T15:13:40.048Z,9.57
2023-04-09T15:16:43.203Z,9.00
2023-04-09T15:19:48.083Z,7.77
2023-04-09T15:22:51.303Z,8.83
2023-04-09T15:25:54.422Z,8.50
2023-04-09T15:29:03.621Z,8.10
2023-04-09T15:32:07.008Z,8.47
2023-04-09T15:35:13.770Z,8.87
2023-04-09T15:38:17.299Z,7.70
2023-04-09T15:41:21.985Z,8.00
2023-04-09T15:44:25.152Z,6.80
2023-04-09T15:47:28.292Z,7.73
2023-04-09T15:50:32.866Z,7.23
2023-04-09T15:53:35.993Z,8.17
2023-04-09T15:56:40.363Z,8.63
2023-04-09T15:59:43.455Z,8.07
2023-04-09T16:02:46.471Z,8.83
2023-04-09T16:05:50.934Z,8.07
2023-04-09T16:08:54.130Z,9.00
2023-04-09T16:11:57.461Z,8.90
2023-04-09T16:15:00.693Z,10.73
2023-04-09T16:18:04.052Z,15.10
2023-04-09T16:21:08.910Z,22.30
2023-04-09T16:24:12.695Z,20.87
2023-04-09T16:27:16.780Z,26.40
2023-04-09T16:30:19.837Z,46.27
2023-04-09T16:33:22.838Z,42.73
2023-04-09T16:36:27.994Z,34.77
2023-04-09T16:39:31.030Z,31.17
2023-04-09T16:42:34.710Z,31.37
2023-04-09T16:45:37.908Z,30.13
2023-04-09T16:48:41.853Z,28.40
2023-04-09T16:51:46.838Z,27.53
2023-04-09T16:54:49.901Z,24.40
2023-04-09T16:57:53.000Z,23.87
2023-04-09T17:00:56.462Z,22.43
2023-04-09T17:04:00.835Z,20.80
2023-04-09T17:07:05.629Z,20.17
2023-04-09T17:10:09.935Z,19.00
2023-04-09T17:13:12.970Z,19.37
2023-04-09T17:16:18.066Z,19.20
2023-04-09T17:19:21.101Z,18.47
2023-04-09T17:22:25.516Z,19.57
2023-04-09T17:25:28.654Z,18.27
2023-04-09T17:28:31.722Z,19.70
2023-04-09T17:31:35.045Z,19.13
2023-04-09T17:34:38.072Z,19.40
2023-04-09T17:37:42.576Z,19.47
2023-04-09T17:40:45.716Z,17.37
2023-04-09T17:43:48.717Z,16.43
2023-04-09T17:46:52.045Z,16.57
2023-04-09T17:49:55.108Z,18.00
2023-04-09T17:52:59.563Z,15.43
2023-04-09T17:56:04.237Z,13.20
2023-04-09T17:59:07.715Z,13.10
2023-04-09T18:02:11.620Z,12.30
2023-04-09T18:05:14.858Z,10.60
2023-04-09T18:08:19.304Z,10.70
2023-04-09T18:11:23.660Z,11.40
2023-04-09T18:14:26.672Z,10.87
2023-04-09T18:17:29.711Z,9.67
2023-04-09T18:20:32.773Z,9.33
2023-04-09T18:23:37.184Z,9.80
2023-04-09T18:26:40.305Z,9.60
2023-04-09T18:29:43.374Z,9.10
2023-04-09T18:32:48.350Z,9.00
2023-04-09T18:35:51.539Z,9.43
2023-04-09T18:38:56.857Z,9.20
2023-04-09T18:41:59.994Z,8.87
2023-04-09T18:45:02.994Z,9.33
2023-04-09T18:48:06.405Z,10.00
2023-04-09T18:51:09.528Z,9.63
2023-04-09T18:54:14.238Z,9.70
2023-04-09T18:57:17.372Z,10.37
2023-04-09T19:00:20.557Z,9.90
2023-04-09T19:03:23.887Z,9.80
2023-04-09T19:06:28.017Z,9.67
2023-04-09T19:09:33.188Z,9.63
2023-04-09T19:12:36.284Z,10.33
2023-04-09T19:15:39.450Z,9.77
2023-04-09T19:18:42.478Z,10.83
2023-04-09T19:21:45.516Z,10.50
2023-04-09T19:24:50.110Z,11.20
2023-04-09T19:27:54.338Z,9.77
2023-04-09T19:30:59.248Z,8.70
2023-04-09T19:34:03.097Z,9.80
2023-04-09T19:37:06.356Z,8.90
2023-04-09T19:40:12.065Z,8.67
2023-04-09T19:43:15.272Z,8.60
2023-04-09T19:46:18.310Z,8.63
2023-04-09T19:49:21.339Z,7.90
2023-04-09T19:52:24.407Z,8.30
2023-04-09T19:55:30.185Z,8.73
2023-04-09T19:58:33.798Z,9.13
2023-04-09T20:01:37.382Z,9.33
2023-04-09T20:04:40.595Z,8.87
2023-04-09T20:07:44.370Z,9.03
2023-04-09T20:10:48.777Z,8.50
2023-04-09T20:13:52.093Z,9.43
2023-04-09T20:16:55.571Z,8.30
2023-04-09T20:19:58.761Z,8.63
2023-04-09T20:23:02.174Z,8.80
2023-04-09T20:26:09.770Z,8.57
2023-04-09T20:29:13.189Z,8.80
2023-04-09T20:32:16.486Z,7.90
2023-04-09T20:35:19.771Z,8.00
2023-04-09T20:38:22.983Z,8.40
2023-04-09T20:41:27.539Z,8.67
2023-04-09T20:44:30.767Z,8.80
2023-04-09T20:47:34.140Z,7.93
2023-04-09T20:50:37.337Z,8.20
2023-04-09T20:53:40.573Z,8.10
2023-04-09T20:56:45.064Z,8.40
2023-04-09T20:59:48.370Z,8.70
2023-04-09T21:02:51.609Z,9.00
2023-04-09T21:05:54.842Z,8.93
2023-04-09T21:08:58.655Z,8.80
2023-04-09T21:12:04.378Z,9.03
2023-04-09T21:15:08.420Z,8.07
2023-04-09T21:18:11.449Z,8.40
2023-04-09T21:21:14.930Z,8.20
2023-04-09T21:24:18.506Z,7.93
2023-04-09T21:27:23.036Z,8.40
2023-04-09T21:30:26.371Z,7.83
2023-04-09T21:33:30.247Z,7.87
2023-04-09T21:36:37.638Z,7.90
2023-04-09T21:39:40.706Z,7.70
2023-04-09T21:42:45.132Z,7.17
2023-04-09T21:45:48.784Z,7.80
2023-04-09T21:48:52.197Z,7.47
2023-04-09T21:51:55.808Z,7.67
2023-04-09T21:54:58.925Z,7.47
2023-04-09T21:58:03.642Z,7.90
2023-04-09T22:01:15.772Z,8.30
2023-04-09T22:04:21.986Z,7.33
2023-04-09T22:07:25.901Z,7.03
2023-04-09T22:10:29.255Z,7.80
2023-04-09T22:13:33.655Z,7.00
2023-04-09T22:16:36.747Z,7.40
2023-04-09T22:19:40.059Z,7.77
2023-04-09T22:22:43.130Z,7.00
2023-04-09T22:25:46.417Z,7.20
2023-04-09T22:28:51.717Z,6.80
2023-04-09T22:31:55.006Z,7.00
2023-04-09T22:34:58.151Z,7.50
2023-04-09T22:38:01.131Z,7.77
2023-04-09T22:41:04.259Z,7.97
2023-04-09T22:44:09.698Z,8.30
2023-04-09T22:47:12.814Z,7.87
2023-04-09T22:50:15.995Z,7.33
2023-04-09T22:53:19.684Z,7.10
2023-04-09T22:56:23.468Z,7.47
2023-04-09T22:59:38.929Z,7.70
2023-04-09T23:02:43.339Z,6.40
2023-04-09T23:05:46.576Z,6.77
2023-04-09T23:08:49.692Z,6.33
2023-04-09T23:11:52.738Z,7.13
2023-04-09T23:14:57.263Z,6.73
2023-04-09T23:18:00.516Z,6.40
2023-04-09T23:21:05.859Z,6.47
2023-04-09T23:24:08.917Z,6.40
2023-04-09T23:27:12.012Z,6.00
2023-04-09T23:30:18.311Z,6.50
2023-04-09T23:33:21.628Z,6.83
2023-04-09T23:36:25.003Z,6.00
2023-04-09T23:39:28.304Z,6.00
2023-04-09T23:42:33.023Z,6.00
2023-04-09T23:45:37.596Z,6.07
2023-04-09T23:48:41.464Z,6.13
2023-04-09T23:51:44.478Z,5.80
2023-04-09T23:54:51.214Z,6.47
2023-04-09T23:57:54.312Z,5.90
